createdAt,value
2018-11-29T00:00:02.045Z,20.60
2018-11-29T00:02:30.100Z,20.00
2018-11-29T00:04:58.177Z,20.23
2018-11-29T00:07:26.294Z,20.70
2018-11-29T00:09:54.396Z,20.83
2018-11-29T00:12:23.455Z,20.20
2018-11-29T00:14:51.516Z,19.77
2018-11-29T00:17:20.186Z,20.87
2018-11-29T00:19:47.678Z,20.10
2018-11-29T00:22:15.757Z,21.43
2018-11-29T00:24:43.807Z,22.40
2018-11-29T00:27:11.844Z,22.87
2018-11-29T00:29:39.872Z,21.97
2018-11-29T00:32:07.952Z,23.23
2018-11-29T00:34:35.990Z,23.33
2018-11-29T00:37:04.109Z,23.00
2018-11-29T00:39:32.121Z,22.73
2018-11-29T00:42:00.177Z,23.33
2018-11-29T00:44:28.215Z,23.60
2018-11-29T00:46:56.301Z,23.97
2018-11-29T00:49:24.324Z,23.77
2018-11-29T00:51:52.707Z,22.53
2018-11-29T00:54:22.099Z,22.60
2018-11-29T00:56:50.293Z,22.20
2018-11-29T00:59:19.742Z,22.80
2018-11-29T01:02:03.472Z,21.47
2018-11-29T01:04:31.686Z,20.70
2018-11-29T01:06:59.917Z,21.33
2018-11-29T01:09:28.180Z,21.30
2018-11-29T01:11:56.425Z,21.23
2018-11-29T01:14:25.123Z,22.53
2018-11-29T01:16:53.311Z,21.77
2018-11-29T01:19:23.577Z,21.07
2018-11-29T01:21:51.844Z,21.03
2018-11-29T01:24:20.237Z,21.30
2018-11-29T01:26:48.508Z,20.20
2018-11-29T01:29:16.803Z,20.90
2018-11-29T01:31:45.261Z,21.77
2018-11-29T01:34:13.483Z,20.80
2018-11-29T01:36:41.719Z,21.60
2018-11-29T01:39:09.960Z,20.90
2018-11-29T01:41:38.170Z,21.63
2018-11-29T01:44:06.599Z,20.77
2018-11-29T01:46:34.820Z,20.67
2018-11-29T01:49:03.114Z,20.80
2018-11-29T01:51:31.329Z,21.20
2018-11-29T01:53:59.504Z,21.17
2018-11-29T01:56:27.731Z,20.80
2018-11-29T01:58:56.075Z,20.07
2018-11-29T02:01:24.382Z,20.13
2018-11-29T02:03:52.875Z,20.30
2018-11-29T02:06:21.053Z,19.50
2018-11-29T02:08:49.278Z,21.47
2018-11-29T02:11:17.508Z,21.47
2018-11-29T02:13:45.749Z,20.93
2018-11-29T02:16:14.358Z,20.30
2018-11-29T02:18:42.633Z,20.40
2018-11-29T02:21:10.850Z,21.47
2018-11-29T02:23:39.085Z,21.20
2018-11-29T02:26:07.408Z,21.03
2018-11-29T02:28:35.622Z,20.20
2018-11-29T02:31:03.897Z,21.10
2018-11-29T02:33:32.567Z,20.47
2018-11-29T02:36:00.910Z,21.23
2018-11-29T02:38:29.159Z,19.97
2018-11-29T02:40:57.666Z,21.37
2018-11-29T02:43:25.918Z,20.83
2018-11-29T02:45:54.120Z,21.37
2018-11-29T02:48:22.368Z,20.80
2018-11-29T02:50:50.589Z,21.07
2018-11-29T02:53:18.766Z,21.23
2018-11-29T02:55:47.015Z,20.50
2018-11-29T02:58:15.306Z,20.90
2018-11-29T03:00:43.526Z,20.13
2018-11-29T03:03:11.832Z,21.27
2018-11-29T03:05:40.027Z,20.30
2018-11-29T03:08:08.266Z,20.43
2018-11-29T03:10:36.409Z,20.77
2018-11-29T03:13:04.650Z,20.30
2018-11-29T03:15:32.850Z,19.43
2018-11-29T03:18:01.072Z,19.73
2018-11-29T03:20:30.743Z,19.93
2018-11-29T03:22:59.068Z,20.47
2018-11-29T03:25:27.307Z,20.10
2018-11-29T03:27:55.519Z,21.17
2018-11-29T03:30:23.945Z,20.87
2018-11-29T03:32:52.190Z,22.07
2018-11-29T03:35:20.576Z,21.00
2018-11-29T03:37:50.084Z,20.87
2018-11-29T03:40:18.486Z,21.03
2018-11-29T03:42:46.802Z,21.43
2018-11-29T03:45:15.526Z,21.23
2018-11-29T03:47:43.729Z,22.20
2018-11-29T03:50:12.477Z,21.07
2018-11-29T03:52:40.658Z,21.27
2018-11-29T03:55:09.325Z,21.30
2018-11-29T03:57:37.940Z,21.83
2018-11-29T04:00:07.964Z,20.70
2018-11-29T04:02:36.158Z,21.73
2018-11-29T04:05:04.853Z,23.10
2018-11-29T04:07:33.065Z,21.77
2018-11-29T04:10:01.297Z,20.63
2018-11-29T04:12:29.507Z,20.80
2018-11-29T04:14:57.821Z,21.40
2018-11-29T04:17:26.074Z,20.77
2018-11-29T04:19:54.477Z,21.07
2018-11-29T04:22:22.730Z,21.73
2018-11-29T04:24:50.949Z,21.03
2018-11-29T04:27:19.196Z,21.03
2018-11-29T04:29:48.187Z,20.90
2018-11-29T04:32:16.430Z,21.90
2018-11-29T04:34:44.623Z,21.30
2018-11-29T04:37:12.987Z,20.67
2018-11-29T04:39:44.920Z,22.07
2018-11-29T04:42:13.172Z,20.53
2018-11-29T04:44:41.385Z,21.17
2018-11-29T04:47:09.600Z,20.67
2018-11-29T04:49:37.855Z,20.70
2018-11-29T04:52:05.708Z,20.80
2018-11-29T04:54:34.157Z,21.10
2018-11-29T04:57:02.626Z,21.93
2018-11-29T04:59:30.905Z,20.83
2018-11-29T05:01:59.163Z,21.93
2018-11-29T05:04:27.402Z,21.10
2018-11-29T05:06:55.571Z,21.00
2018-11-29T05:09:24.129Z,20.60
2018-11-29T05:11:52.749Z,21.00
2018-11-29T05:14:20.972Z,21.47
2018-11-29T05:16:49.191Z,20.13
2018-11-29T05:19:17.415Z,20.30
2018-11-29T05:21:45.705Z,21.70
2018-11-29T05:24:14.045Z,21.37
2018-11-29T05:26:42.342Z,21.37
2018-11-29T05:29:10.801Z,19.73
2018-11-29T05:31:39.105Z,19.03
2018-11-29T05:34:07.408Z,19.10
2018-11-29T05:36:35.648Z,19.73
2018-11-29T05:39:04.791Z,19.63
2018-11-29T05:41:32.922Z,18.63
2018-11-29T05:44:06.553Z,19.87
2018-11-29T05:46:34.723Z,19.43
2018-11-29T05:49:03.041Z,19.73
2018-11-29T05:51:32.314Z,20.47
2018-11-29T06:02:19.618Z,20.27
2018-11-29T06:04:47.725Z,19.53
2018-11-29T06:07:15.948Z,19.97
2018-11-29T06:09:45.615Z,20.10
2018-11-29T06:14:48.366Z,22.03
2018-11-29T06:17:16.529Z,22.67
2018-11-29T06:19:44.624Z,21.10
2018-11-29T06:22:12.723Z,21.37
2018-11-29T06:24:40.748Z,20.30
2018-11-29T06:27:08.803Z,20.63
2018-11-29T06:38:36.004Z,21.37
2018-11-29T06:41:22.513Z,20.60
2018-11-29T06:46:54.792Z,21.07
2018-11-29T06:49:38.338Z,19.87
2018-11-29T06:52:18.826Z,19.47
2018-11-29T06:55:25.468Z,19.37
2018-11-29T06:58:11.082Z,20.63
2018-11-29T07:10:22.214Z,17.90
2018-11-29T07:13:25.965Z,17.70
2018-11-29T07:15:55.330Z,17.37
2018-11-29T07:21:17.355Z,17.83
2018-11-29T07:23:45.658Z,17.53
2018-11-29T07:26:14.018Z,17.87
2018-11-29T07:28:43.593Z,18.20
2018-11-29T07:31:12.178Z,18.63
2018-11-29T07:33:40.540Z,18.23
2018-11-29T07:36:10.129Z,18.83
2018-11-29T07:38:39.697Z,18.93
2018-11-29T07:41:12.320Z,19.23
2018-11-29T07:43:40.682Z,18.90
2018-11-29T07:46:11.519Z,20.10
2018-11-29T07:48:39.770Z,18.23
2018-11-29T07:51:08.104Z,19.03
2018-11-29T07:53:37.736Z,16.93
2018-11-29T07:56:06.132Z,17.40
2018-11-29T07:58:34.610Z,17.80
2018-11-29T08:01:04.511Z,19.00
2018-11-29T08:03:40.840Z,17.73
2018-11-29T08:19:50.033Z,21.57
2018-11-29T08:22:18.070Z,19.13
2018-11-29T08:24:48.275Z,17.40
2018-11-29T08:27:16.995Z,17.00
2018-11-29T08:29:45.242Z,17.87
2018-11-29T08:32:13.588Z,16.77
2018-11-29T08:34:41.804Z,17.03
2018-11-29T08:37:10.040Z,17.17
2018-11-29T08:39:38.277Z,16.87
2018-11-29T08:42:06.578Z,17.00
2018-11-29T08:44:34.860Z,17.13
2018-11-29T08:47:03.224Z,17.40
2018-11-29T08:49:31.539Z,16.87
2018-11-29T08:52:00.116Z,17.43
2018-11-29T08:54:29.068Z,16.07
2018-11-29T08:56:57.510Z,17.20
2018-11-29T08:59:26.082Z,20.17
2018-11-29T09:01:54.492Z,18.23
2018-11-29T09:04:24.118Z,17.03
2018-11-29T09:06:52.426Z,17.53
2018-11-29T09:09:22.501Z,16.50
2018-11-29T09:11:53.016Z,16.70
2018-11-29T09:14:21.297Z,16.50
2018-11-29T09:16:49.495Z,17.20
2018-11-29T09:19:17.968Z,16.73
2018-11-29T09:21:46.294Z,17.03
2018-11-29T09:24:14.557Z,17.07
2018-11-29T09:26:43.076Z,16.60
2018-11-29T09:29:11.395Z,17.20
2018-11-29T09:31:39.607Z,17.13
2018-11-29T09:34:08.927Z,15.53
2018-11-29T09:36:37.276Z,15.20
2018-11-29T09:39:07.608Z,14.73
2018-11-29T09:41:36.160Z,15.20
2018-11-29T09:44:04.426Z,16.07
2018-11-29T09:46:32.712Z,15.53
2018-11-29T09:49:01.075Z,18.30
2018-11-29T09:51:29.340Z,16.43
2018-11-29T09:53:59.882Z,15.23
2018-11-29T09:56:28.155Z,19.70
2018-11-29T09:58:56.481Z,18.73
2018-11-29T10:01:24.897Z,36.90
2018-11-29T10:03:53.220Z,16.90
2018-11-29T10:06:22.570Z,14.80
2018-11-29T10:08:51.583Z,15.43
2018-11-29T10:11:19.949Z,15.23
2018-11-29T10:13:48.322Z,14.87
2018-11-29T10:16:16.667Z,14.40
2018-11-29T10:18:44.851Z,14.70
2018-11-29T10:21:13.093Z,15.20
2018-11-29T10:23:41.518Z,14.97
2018-11-29T10:26:10.090Z,13.53
2018-11-29T10:28:42.880Z,14.83
2018-11-29T10:31:11.280Z,15.17
2018-11-29T10:33:39.519Z,13.50
2018-11-29T10:36:07.796Z,14.93
2018-11-29T10:38:36.033Z,16.23
2018-11-29T10:41:04.437Z,13.23
2018-11-29T10:43:32.704Z,13.30
2018-11-29T10:46:01.080Z,13.60
2018-11-29T10:48:29.525Z,12.77
2018-11-29T10:50:57.877Z,12.87
2018-11-29T10:53:26.222Z,13.40
2018-11-29T10:55:54.500Z,13.07
2018-11-29T10:58:24.913Z,13.80
2018-11-29T11:00:58.482Z,13.37
2018-11-29T11:03:26.845Z,13.80
2018-11-29T11:05:55.852Z,12.60
2018-11-29T11:08:24.531Z,15.20
2018-11-29T11:10:52.842Z,13.03
2018-11-29T11:13:21.045Z,14.00
2018-11-29T11:15:50.035Z,13.63
2018-11-29T11:18:18.320Z,13.43
2018-11-29T11:20:46.582Z,13.47
2018-11-29T11:23:15.118Z,13.53
2018-11-29T11:25:43.409Z,12.40
2018-11-29T11:28:11.639Z,12.60
2018-11-29T11:30:40.831Z,12.27
2018-11-29T11:33:09.063Z,12.30
2018-11-29T11:35:37.413Z,12.33
2018-11-29T11:38:05.763Z,12.03
2018-11-29T11:40:34.537Z,11.57
2018-11-29T11:43:05.334Z,12.03
2018-11-29T11:45:31.172Z,10.70
2018-11-29T11:48:03.294Z,11.00
2018-11-29T11:50:28.030Z,11.27
2018-11-29T11:52:56.347Z,11.17
2018-11-29T11:55:30.493Z,10.53
2018-11-29T11:57:58.551Z,11.50
2018-11-29T12:00:28.064Z,10.70
2018-11-29T12:02:56.789Z,11.30
2018-11-29T12:05:24.889Z,10.47
2018-11-29T12:07:52.947Z,10.90
2018-11-29T12:10:21.039Z,10.43
2018-11-29T12:12:49.240Z,11.03
2018-11-29T12:15:17.293Z,10.53
2018-11-29T12:17:45.849Z,10.50
2018-11-29T12:20:17.429Z,10.83
2018-11-29T12:22:45.464Z,11.20
2018-11-29T12:25:13.977Z,10.10
2018-11-29T12:27:42.009Z,9.90
2018-11-29T12:30:14.725Z,10.07
2018-11-29T12:32:42.892Z,10.23
2018-11-29T12:35:11.174Z,9.47
2018-11-29T12:37:39.330Z,9.40
2018-11-29T12:40:08.900Z,9.80
2018-11-29T12:42:37.228Z,9.67
2018-11-29T12:45:06.729Z,9.20
2018-11-29T12:47:34.981Z,8.63
2018-11-29T12:50:03.281Z,9.83
2018-11-29T12:52:31.648Z,8.73
2018-11-29T12:55:01.003Z,8.83
2018-11-29T12:57:29.223Z,9.20
2018-11-29T12:59:57.581Z,8.97
2018-11-29T13:02:27.030Z,9.17
2018-11-29T13:04:55.324Z,9.00
2018-11-29T13:07:23.579Z,8.87
2018-11-29T13:09:52.634Z,8.40
2018-11-29T13:12:21.012Z,8.23
2018-11-29T13:14:52.238Z,7.40
2018-11-29T13:17:22.625Z,7.83
2018-11-29T13:19:51.348Z,8.10
2018-11-29T13:22:20.704Z,7.80
2018-11-29T13:24:49.201Z,7.20
2018-11-29T13:27:17.419Z,8.20
2018-11-29T13:29:45.650Z,8.07
2018-11-29T13:32:14.098Z,7.97
2018-11-29T13:34:42.305Z,8.47
2018-11-29T13:37:10.707Z,8.37
2018-11-29T13:39:38.992Z,8.77
2018-11-29T13:42:07.234Z,9.47
2018-11-29T13:44:35.496Z,9.43
2018-11-29T13:47:03.845Z,11.30
2018-11-29T13:49:32.135Z,10.50
2018-11-29T13:52:00.387Z,10.30
2018-11-29T13:54:28.708Z,10.10
2018-11-29T13:56:56.902Z,9.80
2018-11-29T13:59:25.126Z,9.90
2018-11-29T14:01:53.401Z,9.73
2018-11-29T14:04:21.899Z,9.17
2018-11-29T14:06:50.285Z,9.17
2018-11-29T14:09:18.517Z,8.90
2018-11-29T14:11:46.806Z,8.37
2018-11-29T14:14:15.024Z,8.27
2018-11-29T14:16:43.222Z,8.33
2018-11-29T14:19:11.438Z,7.80
2018-11-29T14:21:39.741Z,6.57
2018-11-29T14:24:08.938Z,7.60
2018-11-29T14:26:37.254Z,6.50
2018-11-29T14:29:05.978Z,6.30
2018-11-29T14:31:34.259Z,5.93
2018-11-29T14:34:02.875Z,6.33
2018-11-29T14:36:31.032Z,5.50
2018-11-29T14:38:59.269Z,5.50
2018-11-29T14:41:28.447Z,5.13
2018-11-29T14:43:56.634Z,5.20
2018-11-29T14:46:24.869Z,5.63
2018-11-29T14:48:53.032Z,5.43
2018-11-29T14:51:21.327Z,5.20
2018-11-29T14:53:49.537Z,5.70
2018-11-29T14:56:17.892Z,5.17
2018-11-29T14:58:49.748Z,5.93
2018-11-29T15:01:18.203Z,5.67
2018-11-29T15:03:46.465Z,5.43
2018-11-29T15:06:15.080Z,5.17
2018-11-29T15:08:43.258Z,5.43
2018-11-29T15:11:11.436Z,5.62
2018-11-29T15:13:39.637Z,5.60
2018-11-29T15:16:07.972Z,4.93
2018-11-29T15:18:36.194Z,4.97
2018-11-29T15:21:04.409Z,5.40
2018-11-29T15:23:32.689Z,4.93
2018-11-29T15:26:00.966Z,4.80
2018-11-29T15:28:29.247Z,5.30
2018-11-29T15:30:57.679Z,5.33
2018-11-29T15:33:25.968Z,4.80
2018-11-29T15:35:54.181Z,5.00
2018-11-29T15:38:22.470Z,5.20
2018-11-29T15:40:50.703Z,5.60
2018-11-29T15:43:19.213Z,5.23
2018-11-29T15:45:47.446Z,5.30
2018-11-29T15:48:15.795Z,5.00
2018-11-29T15:50:44.096Z,6.07
2018-11-29T15:53:12.682Z,5.50
2018-11-29T15:55:40.956Z,7.70
2018-11-29T15:58:09.237Z,6.17
2018-11-29T16:00:37.545Z,5.27
2018-11-29T16:03:06.374Z,5.60
2018-11-29T16:05:41.163Z,6.87
2018-11-29T16:08:06.720Z,6.73
2018-11-29T16:10:35.034Z,6.67
2018-11-29T16:13:03.263Z,6.40
2018-11-29T16:15:31.542Z,5.70
2018-11-29T16:17:59.885Z,6.43
2018-11-29T16:20:28.831Z,7.60
2018-11-29T16:22:57.212Z,6.40
2018-11-29T16:25:25.445Z,5.87
2018-11-29T16:27:53.680Z,6.10
2018-11-29T16:30:27.781Z,12.13
2018-11-29T16:32:56.831Z,10.70
2018-11-29T16:35:25.047Z,7.80
2018-11-29T16:37:53.254Z,7.40
2018-11-29T16:40:21.505Z,7.10
2018-11-29T16:42:49.745Z,10.13
2018-11-29T16:45:18.082Z,7.60
2018-11-29T16:47:46.408Z,6.03
2018-11-29T16:50:18.471Z,5.90
2018-11-29T16:52:47.066Z,5.80
2018-11-29T16:55:15.324Z,5.10
2018-11-29T16:57:51.287Z,5.10
2018-11-29T17:00:23.404Z,5.13
2018-11-29T17:02:51.781Z,5.30
2018-11-29T17:05:27.780Z,5.37
2018-11-29T17:14:25.323Z,5.47
2018-11-29T17:16:53.534Z,5.73
2018-11-29T17:19:21.693Z,5.20
2018-11-29T17:21:50.103Z,5.10
2018-11-29T17:24:18.365Z,5.43
2018-11-29T17:26:46.665Z,5.67
2018-11-29T17:29:14.863Z,5.60
2018-11-29T17:31:43.366Z,6.13
2018-11-29T17:34:11.467Z,11.60
2018-11-29T17:36:39.597Z,6.90
2018-11-29T17:39:15.479Z,7.80
2018-11-29T17:44:58.745Z,7.87
2018-11-29T17:47:41.109Z,7.97
2018-11-29T17:50:20.112Z,8.20
2018-11-29T17:57:11.112Z,8.07
2018-11-29T17:59:39.113Z,8.20
2018-11-29T18:02:07.195Z,9.20
2018-11-29T18:04:35.192Z,6.83
2018-11-29T18:07:03.310Z,5.70
2018-11-29T18:09:31.341Z,5.33
2018-11-29T18:11:59.489Z,5.13
2018-11-29T18:14:27.566Z,4.40
2018-11-29T18:16:55.605Z,5.00
2018-11-29T18:19:23.671Z,5.40
2018-11-29T18:21:51.892Z,5.00
2018-11-29T18:24:19.905Z,5.37
2018-11-29T18:26:48.002Z,4.90
2018-11-29T18:29:16.071Z,5.30
2018-11-29T18:31:44.143Z,5.40
2018-11-29T18:34:12.231Z,5.53
2018-11-29T18:36:40.301Z,5.93
2018-11-29T18:39:08.758Z,5.60
2018-11-29T18:41:37.224Z,6.07
2018-11-29T18:44:05.587Z,6.30
2018-11-29T18:46:33.762Z,5.83
2018-11-29T18:49:01.813Z,5.90
2018-11-29T18:51:29.858Z,5.93
2018-11-29T18:53:57.889Z,6.40
2018-11-29T18:56:25.971Z,6.47
2018-11-29T18:58:53.988Z,6.30
2018-11-29T19:01:22.074Z,5.93
2018-11-29T19:03:50.201Z,5.53
2018-11-29T19:06:18.438Z,5.87
2018-11-29T19:08:46.587Z,5.80
2018-11-29T19:11:15.189Z,6.67
2018-11-29T19:13:43.478Z,6.37
2018-11-29T19:16:11.718Z,7.13
2018-11-29T19:18:40.117Z,6.50
2018-11-29T19:21:08.357Z,7.27
2018-11-29T19:23:36.516Z,6.67
2018-11-29T19:26:05.579Z,6.53
2018-11-29T19:28:33.714Z,6.83
2018-11-29T19:31:01.909Z,5.60
2018-11-29T19:33:31.126Z,5.73
2018-11-29T19:35:59.376Z,5.60
2018-11-29T19:38:27.750Z,5.90
2018-11-29T19:40:56.062Z,5.73
2018-11-29T19:43:24.322Z,5.50
2018-11-29T19:45:52.603Z,5.50
2018-11-29T19:48:20.939Z,5.13
2018-11-29T19:50:49.121Z,5.83
2018-11-29T19:53:21.006Z,6.53
2018-11-29T19:55:49.959Z,6.53
2018-11-29T19:58:19.139Z,6.53
2018-11-29T20:00:47.456Z,6.40
2018-11-29T20:03:15.706Z,6.47
2018-11-29T20:05:43.962Z,7.27
2018-11-29T20:08:12.293Z,8.80
2018-11-29T20:10:40.987Z,7.67
2018-11-29T20:13:10.943Z,6.90
2018-11-29T20:15:39.904Z,8.20
2018-11-29T20:18:09.004Z,7.03
2018-11-29T20:20:37.369Z,7.23
2018-11-29T20:23:05.990Z,7.97
2018-11-29T20:25:34.404Z,8.40
2018-11-29T20:28:04.488Z,8.60
2018-11-29T20:30:32.949Z,7.60
2018-11-29T20:33:01.165Z,8.20
2018-11-29T20:35:29.749Z,8.63
2018-11-29T20:37:58.167Z,8.17
2018-11-29T20:40:28.922Z,7.40
2018-11-29T20:42:58.108Z,7.07
2018-11-29T20:45:27.661Z,7.03
2018-11-29T20:47:56.021Z,6.93
2018-11-29T20:51:28.184Z,6.97
2018-11-29T20:53:56.595Z,7.40
2018-11-29T20:56:25.155Z,7.33
2018-11-29T20:58:53.536Z,8.30
2018-11-29T21:01:21.999Z,7.70
2018-11-29T21:03:50.544Z,8.27
2018-11-29T21:06:18.897Z,7.57
2018-11-29T21:08:48.947Z,7.50
2018-11-29T21:11:17.308Z,7.63
2018-11-29T21:13:45.789Z,8.53
2018-11-29T21:16:14.096Z,7.67
2018-11-29T21:18:42.413Z,7.70
2018-11-29T21:21:10.685Z,6.80
2018-11-29T21:23:38.704Z,7.53
2018-11-29T21:26:06.775Z,7.23
2018-11-29T21:28:34.756Z,7.13
2018-11-29T21:31:02.871Z,8.13
2018-11-29T21:33:30.873Z,7.20
2018-11-29T21:35:59.094Z,6.53
2018-11-29T21:38:27.262Z,6.40
2018-11-29T21:40:57.176Z,6.13
2018-11-29T21:43:25.219Z,6.53
2018-11-29T21:45:53.205Z,5.50
2018-11-29T21:48:21.209Z,5.50
2018-11-29T21:50:49.235Z,6.17
2018-11-29T21:53:17.234Z,6.07
2018-11-29T21:55:45.274Z,7.00
2018-11-29T21:58:13.251Z,5.77
2018-11-29T22:00:41.607Z,6.03
2018-11-29T22:03:09.587Z,6.03
2018-11-29T22:05:37.569Z,6.77
2018-11-29T22:08:05.687Z,5.97
2018-11-29T22:10:33.684Z,6.40
2018-11-29T22:13:01.657Z,6.43
2018-11-29T22:15:29.772Z,6.87
2018-11-29T22:18:02.568Z,7.23
2018-11-29T22:20:30.576Z,6.77
2018-11-29T22:22:59.599Z,6.50
2018-11-29T22:25:27.574Z,6.80
2018-11-29T22:27:55.548Z,6.43
2018-11-29T22:30:23.544Z,7.20
2018-11-29T22:32:51.564Z,7.27
2018-11-29T22:35:19.623Z,7.07
2018-11-29T22:37:47.636Z,6.87
2018-11-29T22:40:15.687Z,6.53
2018-11-29T22:42:43.981Z,7.23
2018-11-29T22:45:14.177Z,6.90
2018-11-29T22:47:42.158Z,7.23
2018-11-29T22:50:10.214Z,6.97
2018-11-29T22:52:38.195Z,6.97
2018-11-29T22:55:06.682Z,7.43
2018-11-29T22:57:34.775Z,7.93
2018-11-29T23:00:02.884Z,7.20
2018-11-29T23:02:31.260Z,7.57
2018-11-29T23:04:59.249Z,7.53
2018-11-29T23:07:27.252Z,7.80
2018-11-29T23:09:55.293Z,7.93
2018-11-29T23:12:24.338Z,7.47
2018-11-29T23:14:52.881Z,7.20
2018-11-29T23:17:20.992Z,8.43
2018-11-29T23:19:49.013Z,8.13
2018-11-29T23:22:17.023Z,7.93
2018-11-29T23:24:45.087Z,7.97
2018-11-29T23:27:13.123Z,8.53
2018-11-29T23:29:41.124Z,7.90
2018-11-29T23:32:09.161Z,7.87
2018-11-29T23:34:37.160Z,7.53
2018-11-29T23:37:05.564Z,7.37
2018-11-29T23:39:33.655Z,7.60
2018-11-29T23:42:01.935Z,8.50
2018-11-29T23:44:29.948Z,7.53
2018-11-29T23:46:57.965Z,7.60
2018-11-29T23:49:26.012Z,7.90
2018-11-29T23:51:54.016Z,7.67
2018-11-29T23:54:22.020Z,8.27
2018-11-29T23:56:50.107Z,7.83
2018-11-29T23:59:18.112Z,7.17
